Accueil
METAR-TAF:

METAR-TAF

Aéroports :

Arnhem, Pays-Bas

latitude: 52-04N, longitude: 005-53E, altitude: 48 m

Observation

Le bulletin a été fait il y a 32 minutes, à 00:55 UTC
Vent 3 kt de est, variant entre nord et sud/sud-est
Température 11°C
Humidité 66%
Pression 1027 hPa
Visibilité: 3100 m
Ciel couvert à une hauteur de 24000 ft
brume sèche

METAR: EHDL 080055Z AUTO 10003KT 350V150 3100 HZ OVC240 11/05 Q1027 YLO

Heure: 03:27 (01:27 UTC)


TAF: absent

Observations et prévisions météorologiques de plus de 4000 aéroports (messages METAR et TAF).

Les stations disponibles sont représentées par des disques jaunes et rouges sur la carte.

Passer la souris dessus pour voir le nom de la station.

Cliquer dessus pour voir les observations et prévisions météorologiques.

Pour changer de carte: cliquez sur les boutons verts avec une croix noire pour zoomer, sur le bouton vert avec un tiret pour effectuer un zoom arrière, ou sur les flèches vertes pour les cartes adjacentes.


METAR-TAF: